Time;durP1;ratioP1;P1;durP2;ratioP2;P2;SDS_P1;SDS_P2;PMS_P1;PMS_P2;Temp;Humidity;BMP_temperature;BMP_pressure;BME280_temperature;BME280_humidity;BME280_pressure;Samples;Min_cycle;Max_cycle;Signal;HPM_P1;HPM_P2
2023/03/09 00:00:52;;;;;;;25.23;10.00;;;;;;;9.91;51.00;98713.66;4980886;28;20509;-65
2023/03/09 00:03:18;;;;;;;24.58;9.18;;;;;;;10.01;50.64;98737.50;4955548;28;20392;-65
2023/03/09 00:05:51;;;;;;;19.38;9.45;;;;;;;10.03;50.25;98750.69;4939665;28;20089;-66
2023/03/09 00:08:16;;;;;;;24.10;10.02;;;;;;;10.04;50.73;98755.03;4971850;28;20038;-67
2023/03/09 00:10:42;;;;;;;23.13;10.23;;;;;;;10.05;51.05;98756.72;4955932;28;20043;-66
2023/03/09 00:13:07;;;;;;;22.83;10.40;;;;;;;10.06;50.46;98748.50;4939509;28;20035;-66
2023/03/09 00:15:33;;;;;;;27.60;10.38;;;;;;;10.06;50.35;98748.50;4955882;28;20491;-66
2023/03/09 00:17:59;;;;;;;27.73;10.60;;;;;;;10.07;50.47;98746.66;4955495;28;20498;-66
2023/03/09 00:20:24;;;;;;;25.58;10.05;;;;;;;10.09;50.58;98750.00;4971656;28;20059;-66
2023/03/09 00:22:51;;;;;;;23.80;9.48;;;;;;;10.04;51.03;98747.84;4971967;28;20117;-66
2023/03/09 00:25:17;;;;;;;26.23;10.15;;;;;;;10.10;50.23;98770.38;4955432;28;20498;-66
2023/03/09 00:27:46;;;;;;;26.60;9.77;;;;;;;10.06;50.30;98763.72;4956117;28;20039;-67
2023/03/09 00:30:13;;;;;;;24.00;9.75;;;;;;;10.13;50.63;98775.41;4975209;28;20078;-66
2023/03/09 00:32:38;;;;;;;24.20;10.63;;;;;;;10.14;50.16;98777.06;4976369;28;20050;-67
2023/03/09 00:35:04;;;;;;;24.70;10.75;;;;;;;10.15;50.73;98776.06;4959000;28;20053;-66
2023/03/09 00:37:30;;;;;;;23.83;10.65;;;;;;;10.16;50.62;98775.06;4959412;28;20073;-66
2023/03/09 00:39:56;;;;;;;23.58;10.45;;;;;;;10.16;50.46;98785.78;4975050;28;20078;-66
2023/03/09 00:42:21;;;;;;;24.20;10.52;;;;;;;10.06;50.97;98779.75;4958822;28;20042;-67
2023/03/09 00:44:46;;;;;;;28.15;11.45;;;;;;;10.16;50.89;98791.94;4974821;28;20073;-66
2023/03/09 00:47:12;;;;;;;23.92;10.23;;;;;;;10.17;50.49;98779.38;4976051;28;20081;-66
2023/03/09 00:49:38;;;;;;;24.70;12.57;;;;;;;10.19;50.79;98780.06;4975389;28;20066;-66
2023/03/09 00:52:04;;;;;;;26.05;10.45;;;;;;;10.20;50.31;98779.03;4958536;28;20041;-66
2023/03/09 00:54:30;;;;;;;26.20;10.48;;;;;;;10.25;50.43;98782.00;4958627;28;20046;-66
2023/03/09 00:56:55;;;;;;;28.80;11.20;;;;;;;10.25;50.23;98768.63;4975091;28;20038;-65
2023/03/09 00:59:20;;;;;;;27.83;11.77;;;;;;;10.30;50.56;98776.97;4942680;28;20118;-66
2023/03/09 01:01:46;;;;;;;26.42;10.35;;;;;;;10.31;50.29;98766.09;4975312;28;20026;-65
2023/03/09 01:04:11;;;;;;;30.52;11.57;;;;;;;10.33;50.05;98768.59;4974750;28;20118;-66
2023/03/09 01:06:37;;;;;;;26.25;11.05;;;;;;;10.32;50.45;98758.91;4958659;28;20380;-66
2023/03/09 01:09:02;;;;;;;28.30;10.82;;;;;;;10.34;50.50;98771.09;4958557;28;20414;-66
2023/03/09 01:11:28;;;;;;;27.60;11.15;;;;;;;10.35;49.98;98779.94;4958261;28;20450;-65
2023/03/09 01:13:53;;;;;;;29.35;11.45;;;;;;;10.37;51.41;98804.69;4961926;28;20117;-66
2023/03/09 01:16:18;;;;;;;29.40;12.63;;;;;;;10.25;50.84;98782.00;4979045;28;20439;-66
2023/03/09 01:18:44;;;;;;;26.10;11.10;;;;;;;10.37;50.22;98807.34;4963663;28;20039;-66
2023/03/09 01:21:09;;;;;;;27.38;11.35;;;;;;;10.32;50.76;98825.78;4960514;28;20059;-65
2023/03/09 01:23:37;;;;;;;25.85;10.45;;;;;;;10.42;50.08;98882.59;4975401;28;20057;-65
2023/03/09 01:26:03;;;;;;;23.85;10.18;;;;;;;10.28;50.93;98875.31;4960343;28;20475;-66
2023/03/09 01:28:28;;;;;;;30.52;11.13;;;;;;;10.41;50.42;98891.66;4976703;28;20042;-65
2023/03/09 01:30:54;;;;;;;27.40;9.65;;;;;;;10.26;50.77;98882.69;4958798;28;20031;-66
2023/03/09 01:33:19;;;;;;;24.23;10.20;;;;;;;10.38;50.18;98908.06;4975444;28;20510;-66
2023/03/09 01:35:45;;;;;;;31.02;11.82;;;;;;;10.38;50.86;98906.22;4958991;28;20035;-65
2023/03/09 01:38:10;;;;;;;29.73;11.45;;;;;;;10.34;50.59;98891.50;4958724;28;20109;-65
2023/03/09 01:40:36;;;;;;;29.20;12.05;;;;;;;10.40;50.27;98912.22;4974238;28;20051;-66
2023/03/09 01:43:34;;;;;;;28.27;11.35;;;;;;;10.40;50.36;98906.03;4958913;28;20122;-66
2023/03/09 01:46:24;;;;;;;32.80;14.02;;;;;;;10.39;50.73;98915.06;4959126;28;20069;-66
2023/03/09 01:48:55;;;;;;;27.73;11.45;;;;;;;10.37;50.47;98911.72;4991272;28;20054;-65
2023/03/09 01:51:24;;;;;;;29.48;11.85;;;;;;;10.30;50.30;98911.59;4991525;28;20043;-65
2023/03/09 01:53:50;;;;;;;30.50;12.43;;;;;;;10.38;49.98;98918.75;4974799;28;20053;-65
2023/03/09 01:56:17;;;;;;;33.47;11.57;;;;;;;10.34;49.90;98912.06;4942842;28;20038;-65
2023/03/09 01:58:44;;;;;;;31.33;11.70;;;;;;;10.40;50.41;98930.94;4959257;28;20027;-65
2023/03/09 02:01:09;;;;;;;33.17;12.02;;;;;;;10.39;50.52;98926.59;4958678;28;20034;-65
2023/03/09 02:03:38;;;;;;;27.50;10.95;;;;;;;10.40;50.43;98928.28;4975139;28;20043;-65
2023/03/09 02:06:12;;;;;;;29.45;11.40;;;;;;;10.41;50.39;98935.28;4974979;28;20039;-65
2023/03/09 02:08:44;;;;;;;28.27;12.02;;;;;;;10.35;50.36;98936.00;4958854;28;20061;-65
2023/03/09 02:11:11;;;;;;;31.73;12.05;;;;;;;10.42;50.31;98950.34;4958535;28;20458;-66
2023/03/09 02:13:40;;;;;;;31.52;11.10;;;;;;;10.42;50.12;98946.81;4958414;28;20025;-65
2023/03/09 02:16:06;;;;;;;37.97;13.57;;;;;;;10.37;49.71;98941.16;4958066;28;20050;-66
2023/03/09 02:18:32;;;;;;;34.63;13.07;;;;;;;10.37;49.79;98949.19;4942141;28;20035;-65
2023/03/09 02:21:05;;;;;;;34.10;13.18;;;;;;;10.39;49.88;98952.53;4958003;28;20441;-65
2023/03/09 02:23:42;;;;;;;33.63;12.48;;;;;;;10.47;50.23;98971.22;4975136;28;20039;-65
2023/03/09 02:26:25;;;;;;;32.83;12.77;;;;;;;10.33;49.81;98964.75;4957934;28;20054;-65
2023/03/09 02:28:51;;;;;;;34.53;13.40;;;;;;;10.39;50.52;98963.22;4974365;28;20030;-65
2023/03/09 02:31:17;;;;;;;37.28;13.30;;;;;;;10.38;50.28;98957.06;4973891;28;20043;-65
2023/03/09 02:33:43;;;;;;;41.75;13.55;;;;;;;10.45;50.00;98983.94;4975050;28;20031;-66
2023/03/09 02:36:09;;;;;;;37.10;12.55;;;;;;;10.47;49.60;98989.94;4973662;28;20039;-65
2023/03/09 02:38:34;;;;;;;37.95;13.52;;;;;;;10.45;50.23;98984.78;4973477;28;20039;-65
2023/03/09 02:41:02;;;;;;;37.63;12.80;;;;;;;10.47;49.76;98997.97;4974093;28;20022;-66
2023/03/09 02:43:35;;;;;;;34.83;13.13;;;;;;;10.47;50.78;98997.97;4942426;28;20030;-65
2023/03/09 02:46:00;;;;;;;37.17;13.05;;;;;;;10.45;49.60;98992.81;4973631;28;20058;-65
2023/03/09 02:48:25;;;;;;;43.58;13.75;;;;;;;10.32;49.46;98963.09;4957664;28;20561;-66
2023/03/09 02:50:51;;;;;;;40.67;13.95;;;;;;;10.47;50.09;98992.63;4974415;28;20039;-64
2023/03/09 02:53:16;;;;;;;36.88;13.80;;;;;;;10.38;49.91;98981.16;4957538;28;20435;-66
2023/03/09 02:55:42;;;;;;;40.67;13.70;;;;;;;10.46;49.97;98977.59;4974023;28;20026;-66
2023/03/09 02:58:07;;;;;;;41.03;13.23;;;;;;;10.45;50.21;98981.28;4974729;28;20586;-65
2023/03/09 03:00:32;;;;;;;43.92;15.07;;;;;;;10.43;49.77;98999.34;4974919;28;20110;-65
2023/03/09 03:02:58;;;;;;;47.90;16.10;;;;;;;10.46;49.93;98990.97;4941388;28;20506;-66
2023/03/09 03:05:23;;;;;;;40.72;15.07;;;;;;;10.45;50.24;98994.66;4957750;28;20390;-65
2023/03/09 03:07:49;;;;;;;32.70;13.30;;;;;;;10.45;49.83;98990.13;4957395;28;20490;-65
2023/03/09 03:10:15;;;;;;;44.85;13.93;;;;;;;10.46;49.67;98993.66;4941407;28;20085;-65
2023/03/09 03:12:41;;;;;;;33.83;13.20;;;;;;;10.46;49.92;98996.34;4957054;28;20035;-65
2023/03/09 03:15:07;;;;;;;38.83;13.30;;;;;;;10.46;49.75;98996.34;4957149;28;20035;-65
2023/03/09 03:17:32;;;;;;;40.25;14.57;;;;;;;10.46;49.74;99001.69;4973145;28;20031;-65
2023/03/09 03:19:58;;;;;;;37.45;14.45;;;;;;;10.41;49.85;98996.03;4957364;28;20042;-65
2023/03/09 03:22:23;;;;;;;42.38;13.95;;;;;;;10.46;49.98;99009.72;4973062;28;20045;-65
2023/03/09 03:24:49;;;;;;;38.83;13.75;;;;;;;10.45;49.89;99021.41;4956873;28;20031;-66
2023/03/09 03:27:14;;;;;;;43.88;15.02;;;;;;;10.40;49.91;99023.78;4973038;28;20094;-65
2023/03/09 03:29:40;;;;;;;43.80;14.25;;;;;;;10.46;49.67;99039.16;4973025;28;20050;-65
2023/03/09 03:32:06;;;;;;;42.42;14.45;;;;;;;10.47;49.60;99041.66;4972848;28;20219;-65
2023/03/09 03:34:31;;;;;;;49.45;14.13;;;;;;;10.46;49.77;99042.69;4974804;28;20038;-64
2023/03/09 03:36:57;;;;;;;40.63;15.27;;;;;;;10.44;49.44;99041.19;4972913;28;20039;-65
2023/03/09 03:39:22;;;;;;;43.45;14.35;;;;;;;10.43;50.06;99034.16;4940612;28;20703;-65
2023/03/09 03:41:48;;;;;;;39.00;14.20;;;;;;;10.41;49.64;99038.84;4957004;28;20035;-65
2023/03/09 03:44:14;;;;;;;39.50;13.02;;;;;;;10.38;50.06;99031.16;4973416;28;20126;-66
2023/03/09 03:46:39;;;;;;;34.47;12.88;;;;;;;10.36;50.05;99033.16;4973601;28;20371;-65
2023/03/09 03:49:05;;;;;;;33.50;11.88;;;;;;;10.33;50.21;99041.56;4974586;28;20401;-65
2023/03/09 03:51:30;;;;;;;42.40;13.38;;;;;;;10.31;49.94;99059.59;4974367;28;20035;-66
2023/03/09 03:53:56;;;;;;;40.22;14.25;;;;;;;10.28;49.98;99067.97;4972680;28;20038;-66
2023/03/09 03:56:21;;;;;;;32.40;13.05;;;;;;;10.19;49.68;99048.41;4956387;28;20035;-66
2023/03/09 03:58:47;;;;;;;33.33;12.68;;;;;;;10.22;50.13;99068.63;4957217;28;20093;-65
2023/03/09 04:01:12;;;;;;;32.22;13.23;;;;;;;10.20;50.23;99065.31;4956622;28;20027;-65
2023/03/09 04:03:37;;;;;;;30.38;11.65;;;;;;;10.12;49.93;99055.44;4958598;28;20466;-66
2023/03/09 04:06:03;;;;;;;31.20;12.18;;;;;;;10.12;49.73;99049.25;4944671;28;20054;-67
2023/03/09 04:08:29;;;;;;;36.53;11.88;;;;;;;10.18;49.94;99057.47;4960328;28;20054;-66
2023/03/09 04:10:55;;;;;;;34.08;11.35;;;;;;;10.10;50.41;99049.44;4960638;28;20405;-66
2023/03/09 04:13:21;;;;;;;35.10;11.25;;;;;;;10.15;50.30;99078.38;4960465;28;20114;-66
2023/03/09 04:15:46;;;;;;;30.02;11.35;;;;;;;10.15;50.26;99084.56;4976341;28;20038;-65
2023/03/09 04:18:11;;;;;;;30.27;10.50;;;;;;;10.17;50.38;99084.38;4960247;28;20438;-66
2023/03/09 04:20:38;;;;;;;30.75;11.32;;;;;;;10.17;49.69;99089.72;4976306;28;20379;-66
2023/03/09 04:23:04;;;;;;;33.40;11.98;;;;;;;10.17;50.26;99087.03;4960212;28;20494;-66
2023/03/09 04:25:29;;;;;;;34.33;11.88;;;;;;;10.17;50.32;99095.06;4977835;28;20029;-66
2023/03/09 04:27:56;;;;;;;32.47;11.52;;;;;;;10.12;50.68;99086.69;4977703;28;20093;-66
2023/03/09 04:30:22;;;;;;;30.98;10.65;;;;;;;10.12;49.82;99084.00;4960231;28;20058;-66
2023/03/09 04:32:48;;;;;;;29.95;11.27;;;;;;;10.18;50.38;99104.78;4959845;28;20137;-67
2023/03/09 04:35:13;;;;;;;33.50;11.07;;;;;;;10.18;49.80;99102.94;4975889;28;20027;-66
2023/03/09 04:37:39;;;;;;;27.58;10.68;;;;;;;10.13;50.46;99091.09;4977635;28;20479;-66
2023/03/09 04:40:05;;;;;;;31.48;11.32;;;;;;;10.19;50.44;99096.56;4959616;28;20057;-66
2023/03/09 04:42:31;;;;;;;34.80;11.07;;;;;;;10.21;50.33;99099.94;4975875;28;20043;-66
2023/03/09 04:44:56;;;;;;;29.02;10.25;;;;;;;10.21;50.02;99104.44;4977634;28;20035;-66
2023/03/09 04:47:22;;;;;;;26.00;10.13;;;;;;;10.16;50.62;99096.09;4975746;28;20038;-66
2023/03/09 04:49:48;;;;;;;28.80;10.80;;;;;;;10.13;50.44;99101.78;4944455;28;20027;-65
2023/03/09 04:52:13;;;;;;;26.77;11.50;;;;;;;10.20;50.29;99114.31;4959587;28;20042;-65
2023/03/09 04:54:39;;;;;;;28.42;9.57;;;;;;;10.18;50.58;99112.81;4975649;28;20078;-65
2023/03/09 04:57:04;;;;;;;23.38;10.20;;;;;;;10.18;50.38;99120.84;4959539;28;20031;-65
2023/03/09 04:59:30;;;;;;;19.05;8.18;;;;;;;10.19;50.11;99122.50;4956082;28;20027;-65
2023/03/09 05:01:56;;;;;;;27.08;9.43;;;;;;;10.16;50.16;99129.00;4957824;28;20030;-65
2023/03/09 05:04:21;;;;;;;24.38;9.32;;;;;;;10.14;50.14;99125.69;4976562;28;20114;-66
2023/03/09 05:06:47;;;;;;;29.55;10.13;;;;;;;10.15;50.33;99131.88;4975463;28;20146;-66
2023/03/09 05:09:12;;;;;;;22.13;8.90;;;;;;;10.08;50.18;99130.84;4959384;28;20529;-66
2023/03/09 05:11:38;;;;;;;27.52;10.45;;;;;;;10.07;49.71;99130.00;4959389;28;20038;-66
2023/03/09 05:14:03;;;;;;;25.10;10.55;;;;;;;10.08;50.93;99141.56;4958812;28;20034;-66
2023/03/09 05:16:29;;;;;;;24.50;9.98;;;;;;;10.14;50.03;99148.91;4975940;28;20486;-66
2023/03/09 05:18:54;;;;;;;25.85;9.23;;;;;;;10.17;50.18;99157.44;4975584;28;20043;-66
2023/03/09 05:21:20;;;;;;;28.63;10.48;;;;;;;10.18;49.63;99158.28;4959535;28;20408;-66
2023/03/09 05:23:45;;;;;;;23.40;9.25;;;;;;;10.14;50.57;99151.59;4975343;28;20518;-65
2023/03/09 05:26:11;;;;;;;25.98;9.43;;;;;;;10.18;50.07;99152.94;4959341;28;20082;-66
2023/03/09 05:28:38;;;;;;;27.95;9.52;;;;;;;10.21;50.31;99141.91;4978044;28;20057;-66
2023/03/09 05:31:08;;;;;;;24.58;9.20;;;;;;;10.26;50.23;99160.97;4961414;28;20035;-66
2023/03/09 05:33:34;;;;;;;28.85;10.23;;;;;;;10.21;50.05;99150.78;4961362;28;20524;-66
2023/03/09 05:35:59;;;;;;;30.13;9.35;;;;;;;10.31;49.94;99161.28;4958919;28;20048;-67
2023/03/09 05:38:25;;;;;;;25.40;9.27;;;;;;;10.34;49.75;99169.81;4975008;28;20526;-66
2023/03/09 05:40:50;;;;;;;23.45;8.63;;;;;;;10.37;49.92;99179.34;4959033;28;20050;-65
2023/03/09 05:43:15;;;;;;;28.45;10.18;;;;;;;10.38;50.01;99173.00;4974753;28;20038;-65
2023/03/09 05:45:41;;;;;;;29.35;10.13;;;;;;;10.37;49.84;99182.88;4975931;28;20082;-65
2023/03/09 05:48:06;;;;;;;28.98;10.60;;;;;;;10.33;49.76;99178.03;4974717;28;20031;-65
2023/03/09 05:50:32;;;;;;;36.90;11.50;;;;;;;10.27;50.61;99168.00;4942547;28;20039;-65
2023/03/09 05:52:58;;;;;;;26.50;9.70;;;;;;;10.41;49.78;99196.75;4959066;28;20046;-66
2023/03/09 05:55:23;;;;;;;24.50;9.30;;;;;;;10.40;49.79;99200.41;4974689;28;20042;-65
2023/03/09 05:57:49;;;;;;;27.17;10.32;;;;;;;10.40;49.88;99203.09;4975718;28;20035;-66
2023/03/09 06:00:15;;;;;;;26.63;9.63;;;;;;;10.41;49.52;99202.09;4975760;28;20049;-66
2023/03/09 06:02:40;;;;;;;28.75;10.32;;;;;;;10.44;50.11;99207.13;4974628;28;20031;-65
2023/03/09 06:05:06;;;;;;;32.67;10.93;;;;;;;10.38;49.61;99199.75;4958855;28;20441;-65
2023/03/09 06:07:32;;;;;;;30.67;10.90;;;;;;;10.46;49.87;99213.13;4975808;28;20034;-66
2023/03/09 06:09:57;;;;;;;32.20;10.63;;;;;;;10.47;49.66;99215.63;4975158;28;20514;-67
2023/03/09 06:12:22;;;;;;;27.77;10.75;;;;;;;10.47;49.84;99222.81;4974570;28;20054;-66
2023/03/09 06:14:48;;;;;;;31.85;12.63;;;;;;;10.42;49.97;99217.97;4974513;28;20047;-66
2023/03/09 06:17:14;;;;;;;32.60;12.32;;;;;;;10.49;49.87;99231.53;4958472;28;20059;-66
2023/03/09 06:19:40;;;;;;;24.38;9.85;;;;;;;10.44;49.74;99217.84;4974736;28;20042;-66
2023/03/09 06:22:06;;;;;;;31.65;11.57;;;;;;;10.52;49.68;99247.28;4975352;28;20039;-65
2023/03/09 06:24:32;;;;;;;32.40;11.15;;;;;;;10.51;50.17;99240.22;4958196;28;20121;-65
2023/03/09 06:26:58;;;;;;;26.35;9.40;;;;;;;10.40;50.11;99221.84;4957441;28;20045;-66
2023/03/09 06:29:25;;;;;;;27.48;10.25;;;;;;;10.55;49.63;99252.28;4974022;28;20483;-66
2023/03/09 06:31:50;;;;;;;31.10;10.82;;;;;;;10.55;49.53;99263.00;4942449;28;20034;-65
2023/03/09 06:34:15;;;;;;;31.55;10.95;;;;;;;10.49;50.08;99247.59;4957981;28;20039;-67
2023/03/09 06:36:41;;;;;;;29.17;10.02;;;;;;;10.58;49.86;99272.53;4957874;28;20035;-66
2023/03/09 06:39:06;;;;;;;21.98;9.63;;;;;;;10.60;49.79;99282.06;4973847;28;20039;-66
2023/03/09 06:41:31;;;;;;;34.97;11.38;;;;;;;10.60;49.89;99282.06;4974915;28;20487;-66
2023/03/09 06:43:58;;;;;;;25.65;8.68;;;;;;;10.55;49.77;99273.72;4958344;28;20031;-64
2023/03/09 06:46:24;;;;;;;25.77;9.05;;;;;;;10.50;50.17;99268.00;4974143;28;20517;-66
2023/03/09 06:48:50;;;;;;;30.35;9.73;;;;;;;10.66;50.08;99292.13;4974172;28;20038;-65
2023/03/09 06:51:17;;;;;;;21.75;7.57;;;;;;;10.59;49.44;99272.34;4973963;28;20042;-67
2023/03/09 06:53:42;;;;;;;24.02;8.15;;;;;;;10.64;49.80;99271.84;4975006;28;20034;-67
2023/03/09 06:56:09;;;;;;;27.88;9.93;;;;;;;10.70;49.59;99277.38;4957690;28;20538;-68
2023/03/09 06:58:34;;;;;;;22.25;7.93;;;;;;;10.75;49.59;99279.56;4974287;28;20030;-68
2023/03/09 07:01:06;;;;;;;24.70;9.15;;;;;;;10.72;49.71;99283.38;4973403;28;20166;-68
2023/03/09 07:03:32;;;;;;;22.75;8.48;;;;;;;10.78;49.24;99297.94;4973535;28;20038;-68
2023/03/09 07:05:57;;;;;;;18.65;7.03;;;;;;;10.77;49.17;99282.91;4941323;28;20039;-68
2023/03/09 07:08:23;;;;;;;22.30;9.38;;;;;;;10.78;49.52;99288.06;4941327;28;20035;-68
2023/03/09 07:10:49;;;;;;;25.70;8.02;;;;;;;10.85;49.65;99302.50;4973741;28;20549;-68
2023/03/09 07:13:15;;;;;;;24.55;7.72;;;;;;;10.90;49.23;99310.84;4974800;28;20039;-69
2023/03/09 07:15:41;;;;;;;21.13;8.52;;;;;;;10.90;49.53;99321.56;4957080;28;20402;-68
2023/03/09 07:18:07;;;;;;;22.17;7.90;;;;;;;10.79;49.58;99302.31;4979191;28;20039;-68
2023/03/09 07:20:32;;;;;;;25.80;8.90;;;;;;;10.92;49.78;99324.06;4956911;28;20045;-68
2023/03/09 07:22:58;;;;;;;23.75;8.68;;;;;;;10.94;49.33;99330.91;4957486;28;20062;-68
2023/03/09 07:25:23;;;;;;;21.60;8.85;;;;;;;10.95;49.17;99337.97;4957075;28;20545;-68
2023/03/09 07:27:49;;;;;;;16.60;6.95;;;;;;;10.98;49.11;99337.63;4973077;28;20490;-68
2023/03/09 07:30:15;;;;;;;22.75;8.15;;;;;;;11.00;48.99;99343.66;4974232;28;20043;-69
2023/03/09 07:32:40;;;;;;;19.00;7.32;;;;;;;11.04;49.30;99344.16;4956927;28;20086;-68
2023/03/09 07:35:07;;;;;;;19.02;7.93;;;;;;;11.08;49.64;99350.88;4973016;28;20042;-68
2023/03/09 07:37:32;;;;;;;22.30;7.90;;;;;;;11.11;49.55;99348.66;4973413;28;20402;-68
2023/03/09 07:39:57;;;;;;;21.92;7.82;;;;;;;11.17;49.10;99359.72;4973001;28;20039;-68
2023/03/09 07:42:23;;;;;;;20.02;7.65;;;;;;;11.11;49.04;99351.34;4972914;28;20039;-68
2023/03/09 07:44:48;;;;;;;20.83;8.35;;;;;;;11.23;49.31;99372.44;4956984;28;20581;-68
2023/03/09 07:47:14;;;;;;;22.73;8.57;;;;;;;11.27;49.18;99384.50;4956975;28;20070;-68
2023/03/09 07:49:39;;;;;;;24.48;8.18;;;;;;;11.30;49.34;99382.34;4973508;28;20030;-68
2023/03/09 07:52:04;;;;;;;23.55;9.38;;;;;;;11.27;49.54;99387.19;4956955;28;20030;-68
2023/03/09 07:54:30;;;;;;;21.40;7.90;;;;;;;11.36;49.42;99396.91;4974132;28;20486;-68
2023/03/09 07:56:55;;;;;;;20.33;7.95;;;;;;;11.38;49.62;99394.88;4974102;28;20043;-68
2023/03/09 07:59:21;;;;;;;27.02;8.88;;;;;;;11.41;48.83;99402.59;4974112;28;20121;-68
2023/03/09 08:01:46;;;;;;;26.60;10.48;;;;;;;11.42;48.93;99393.50;4973365;28;20398;-68
2023/03/09 08:04:13;;;;;;;20.77;7.90;;;;;;;11.46;49.33;99406.44;4972747;28;20039;-68
2023/03/09 08:06:39;;;;;;;28.20;9.82;;;;;;;11.50;49.33;99402.38;4973082;28;20043;-68
2023/03/09 08:09:06;;;;;;;30.27;10.73;;;;;;;11.50;49.43;99390.84;4972888;28;20054;-68
2023/03/09 08:11:32;;;;;;;23.52;9.20;;;;;;;11.56;49.14;99392.81;4972776;28;20069;-68
2023/03/09 08:13:58;;;;;;;21.90;9.23;;;;;;;11.62;49.18;99402.88;4957259;28;20117;-68
2023/03/09 08:16:24;;;;;;;16.65;7.63;;;;;;;11.67;48.67;99416.59;4956784;28;20126;-68
2023/03/09 08:18:49;;;;;;;22.17;8.93;;;;;;;11.77;49.13;99433.41;4940737;28;20402;-68
2023/03/09 08:21:15;;;;;;;28.08;9.90;;;;;;;11.79;49.35;99436.72;4974314;28;20055;-68
2023/03/09 08:23:41;;;;;;;23.45;8.73;;;;;;;11.82;49.47;99441.75;4956871;28;20094;-68
2023/03/09 08:26:07;;;;;;;23.42;9.75;;;;;;;11.72;49.83;99421.50;4956658;28;20031;-68
2023/03/09 08:28:33;;;;;;;25.77;9.80;;;;;;;11.89;49.34;99455.34;4957016;28;20487;-68
2023/03/09 08:30:58;;;;;;;18.23;8.20;;;;;;;11.84;48.49;99442.41;4973917;28;20047;-68
2023/03/09 08:33:24;;;;;;;20.95;8.30;;;;;;;11.93;48.94;99465.53;4956897;28;20035;-68
2023/03/09 08:35:49;;;;;;;25.08;9.32;;;;;;;11.96;49.02;99473.25;4972619;28;20041;-68
2023/03/09 08:38:15;;;;;;;20.23;9.43;;;;;;;11.97;48.67;99488.34;4940580;28;20035;-68
2023/03/09 08:40:41;;;;;;;25.30;8.50;;;;;;;11.96;49.04;99492.03;4972905;28;20434;-68
2023/03/09 08:43:06;;;;;;;23.25;8.73;;;;;;;11.98;48.84;99492.69;4972704;28;20038;-68
2023/03/09 08:45:32;;;;;;;18.05;7.60;;;;;;;11.94;49.60;99479.81;4972625;28;20495;-68
2023/03/09 08:47:57;;;;;;;23.33;8.23;;;;;;;11.96;49.03;99493.88;4973618;28;20042;-68
2023/03/09 08:50:23;;;;;;;25.52;8.32;;;;;;;11.96;49.19;99492.03;4976707;28;20054;-68
2023/03/09 08:52:48;;;;;;;18.85;7.20;;;;;;;12.07;49.28;99513.16;4976544;28;20035;-68
2023/03/09 08:55:14;;;;;;;21.25;8.48;;;;;;;12.06;49.05;99510.66;4959931;28;20030;-67
2023/03/09 08:57:39;;;;;;;23.30;9.00;;;;;;;12.10;48.69;99510.13;4976435;28;20035;-68
2023/03/09 09:00:09;;;;;;;21.92;7.68;;;;;;;12.14;48.62;99506.06;4960076;28;20053;-68
2023/03/09 09:02:35;;;;;;;23.60;9.45;;;;;;;12.08;49.23;99479.94;4977343;28;20110;-68
2023/03/09 09:05:00;;;;;;;21.83;8.57;;;;;;;12.31;49.61;99484.56;4977308;28;20058;-68
2023/03/09 09:07:25;;;;;;;21.30;9.70;;;;;;;12.44;48.39;99490.22;4944243;28;20081;-68
2023/03/09 09:09:51;;;;;;;20.25;8.45;;;;;;;12.52;48.41;99476.75;4976885;28;20065;-68
2023/03/09 09:12:16;;;;;;;18.70;7.90;;;;;;;12.58;49.01;99470.69;4975581;28;20049;-68
2023/03/09 09:14:42;;;;;;;18.23;7.13;;;;;;;12.69;48.70;99489.09;4975518;28;20058;-68
2023/03/09 09:17:08;;;;;;;22.35;8.63;;;;;;;12.82;48.46;99505.47;4975498;28;20518;-68
2023/03/09 09:19:40;;;;;;;23.58;8.52;;;;;;;12.83;48.10;99497.25;4975855;28;20034;-68
2023/03/09 09:22:06;;;;;;;17.70;7.88;;;;;;;12.89;49.20;99511.84;4959351;28;20039;-68
2023/03/09 09:24:35;;;;;;;21.50;9.20;;;;;;;12.84;48.29;99515.03;4959236;28;20110;-68
2023/03/09 09:27:00;;;;;;;23.60;7.85;;;;;;;12.92;49.05;99543.75;4975230;28;20043;-68
2023/03/09 09:29:26;;;;;;;20.65;8.35;;;;;;;12.92;49.44;99543.75;4942991;28;20375;-68
2023/03/09 09:31:52;;;;;;;18.65;7.50;;;;;;;12.87;48.65;99529.97;4975492;28;20471;-68
2023/03/09 09:34:18;;;;;;;21.90;8.25;;;;;;;12.94;48.66;99530.97;4958944;28;20042;-68
2023/03/09 09:36:44;;;;;;;20.95;8.07;;;;;;;12.98;49.03;99534.13;4959015;28;20081;-68
2023/03/09 09:39:12;;;;;;;18.00;8.00;;;;;;;13.02;49.49;99533.59;4959178;28;20046;-68
2023/03/09 09:41:48;;;;;;;22.08;9.55;;;;;;;13.11;48.02;99548.72;4975385;28;20073;-69
2023/03/09 09:44:16;;;;;;;22.15;8.57;;;;;;;13.07;48.57;99535.75;4976066;28;20134;-68
2023/03/09 09:46:41;;;;;;;22.23;8.85;;;;;;;13.19;49.15;99556.72;4976876;28;20031;-68
2023/03/09 09:49:19;;;;;;;29.83;10.23;;;;;;;13.23;49.16;99558.03;4959897;28;20042;-68
2023/03/09 09:51:48;;;;;;;28.83;10.18;;;;;;;13.27;48.30;99548.59;4974772;28;20122;-68
2023/03/09 09:54:16;;;;;;;24.85;10.38;;;;;;;13.35;49.26;99534.25;4975989;28;20634;-68
2023/03/09 09:56:48;;;;;;;29.33;10.75;;;;;;;13.45;47.86;99542.09;4974991;28;20453;-68
2023/03/09 09:59:45;;;;;;;23.95;9.18;;;;;;;13.58;49.03;99545.03;4958658;28;20061;-69
2023/03/09 10:02:10;;;;;;;33.78;9.93;;;;;;;13.69;48.13;99544.59;4957527;28;20086;-68
2023/03/09 10:04:59;;;;;;;20.33;8.98;;;;;;;13.78;48.63;99538.97;4976298;28;20125;-68
2023/03/09 10:07:25;;;;;;;23.38;9.38;;;;;;;13.75;49.02;99527.72;4964984;28;20089;-68
2023/03/09 10:09:54;;;;;;;22.35;8.80;;;;;;;13.69;48.22;99512.31;4942401;28;20069;-68
2023/03/09 10:12:20;;;;;;;21.40;8.88;;;;;;;13.83;48.69;99533.88;4974430;28;20068;-68
2023/03/09 10:14:59;;;;;;;20.40;8.55;;;;;;;13.88;48.07;99538.72;4958541;28;20515;-68
2023/03/09 10:17:24;;;;;;;22.00;8.45;;;;;;;13.94;47.84;99541.53;4974448;28;20100;-69
2023/03/09 10:19:50;;;;;;;26.50;10.13;;;;;;;13.98;48.88;99536.63;4975990;28;20546;-68
2023/03/09 10:22:24;;;;;;;20.60;8.85;;;;;;;13.95;48.48;99526.22;4974961;28;20039;-68
2023/03/09 10:24:54;;;;;;;20.20;8.45;;;;;;;14.07;47.53;99526.59;4976001;28;20031;-68
2023/03/09 10:27:26;;;;;;;21.92;7.97;;;;;;;14.12;48.93;99546.56;4974565;28;20138;-68
2023/03/09 10:30:02;;;;;;;19.45;8.35;;;;;;;14.10;48.07;99537.00;4990553;28;20581;-68
2023/03/09 10:33:00;;;;;;;20.13;8.05;;;;;;;14.06;47.96;99533.84;4958199;28;20066;-68
2023/03/09 10:35:34;;;;;;;19.90;8.27;;;;;;;14.10;49.00;99540.50;4975521;28;20034;-68
2023/03/09 10:38:00;;;;;;;19.50;8.15;;;;;;;14.08;47.92;99529.09;4974366;28;20027;-68
2023/03/09 10:40:29;;;;;;;20.83;8.07;;;;;;;14.17;48.61;99536.09;4974593;28;20066;-68
2023/03/09 10:42:57;;;;;;;21.02;8.52;;;;;;;14.18;48.46;99526.97;4958810;28;20031;-69
2023/03/09 10:45:30;;;;;;;20.60;8.65;;;;;;;14.25;48.14;99536.00;4958527;28;20034;-68
2023/03/09 10:48:09;;;;;;;21.20;8.50;;;;;;;14.16;48.88;99510.16;4957723;28;20109;-68
2023/03/09 10:50:58;;;;;;;19.98;8.77;;;;;;;14.30;47.67;99546.22;4973942;28;20023;-68
2023/03/09 10:53:26;;;;;;;19.70;8.50;;;;;;;14.34;48.66;99553.78;4973846;28;20058;-68
2023/03/09 10:55:53;;;;;;;20.42;7.93;;;;;;;14.40;47.71;99542.28;4990274;28;20027;-69
2023/03/09 10:58:21;;;;;;;21.05;8.70;;;;;;;14.49;48.30;99551.06;4973940;28;20038;-68
2023/03/09 11:01:02;;;;;;;18.25;7.75;;;;;;;14.56;47.39;99547.47;4960466;28;20042;-68
2023/03/09 11:03:39;;;;;;;20.48;7.57;;;;;;;14.57;47.52;99554.53;4964158;28;20035;-69
2023/03/09 11:06:27;;;;;;;22.10;9.43;;;;;;;14.52;48.37;99530.00;4980568;28;20122;-68
2023/03/09 11:09:00;;;;;;;28.65;7.88;;;;;;;14.48;48.49;99533.25;4960551;28;20126;-69
2023/03/09 11:11:26;;;;;;;23.67;9.55;;;;;;;14.51;48.00;99539.13;4943497;28;20077;-68
2023/03/09 11:13:53;;;;;;;19.45;7.72;;;;;;;14.50;48.68;99548.22;4957872;28;20085;-68
2023/03/09 11:16:25;;;;;;;22.75;8.65;;;;;;;14.54;48.41;99552.19;4961514;28;20082;-68
2023/03/09 11:19:23;;;;;;;19.40;8.90;;;;;;;14.58;48.84;99550.81;4964190;28;20053;-68
2023/03/09 11:22:00;;;;;;;19.90;8.10;;;;;;;14.62;47.79;99545.91;4964138;28;20039;-68